Overland Park, KS

2:33 PM CST on January 23, 2017 (GMT -0600)
Milburn | | Change Station

Elev 996 ft 39.01 °N, 94.68 °W | Updated 2 seconds ago

Mostly Cloudy
Mostly Cloudy
42.3 °F
Feels Like 42 °F
N
2.2
Wind Variable Wind from WSW
Gusts 4.5 mph

Today
High -- | Low -- °F
--% Chance of Precip.
Yesterday
High -- | Low -- °F
Precip. -- in
Pressure 29.87 in
Visibility 6.0 miles
Clouds Few 1200 ft
Windchill 42 °F
Dew Point 35 °F
Humidity 74%
Rainfall 0.00 in
Snow Depth Not available.
7:31 AM 5:29 PM
Waning Crescent, 16% visible
METAR KOJC 231953Z VRB03KT 6SM HZ FEW012 04/01 A2985 RMK AO2 SLP114 T00440006
Pressure 29.87 in
Visibility 6.0 miles
Clouds Few 1200 ft
Windchill 42 °F
Dew Point 35 °F
Humidity 74%
Rainfall 0.00 in
Snow Depth Not available.
7:31 AM 5:29 PM
Waning Crescent, 16% visible
METAR KOJC 231953Z VRB03KT 6SM HZ FEW012 04/01 A2985 RMK AO2 SLP114 T00440006

Get Your Daily Forecast Email!

Thanks for signing up!

Be on the lookout for a verification email in your inbox.

You'll start receiving the daily forecast at 8 AM.

×

10-Day Weather Forecast

Almanac

Astronomy

Jan. 23, 2017 Rise Set
Actual Time
Civil Twilight
Nautical Twilight
Astronomical Twilight
Moon
Length of Visible Light
Length of Day
Tomorrow will be .
, % of the Moon is Illuminated

Today's Extremes

State Highs State Lows

Community

WunderPhotos

Upload Photos

1,962,540 photos uploaded!

WunderBlog® & News

Nearby

Air Quality

  Air Quality AQ Index Pollutant
Not available.

Snow Depth

Station Depth Elevation

Earthquake Activity

City Distance Mag. Time & Date
Minimum magnitude displayed is 2.5.

Coastal Water Temperatures

Place Temperature

Stations

Nearby Weather Stations

Station Location Temp. Windchill Dew Point Humidity Wind Precip. Elev Updated Type
                   

Watches & Warnings

There are currently no watches in effect.